Decoded Metar for KLBO ( in ) (IATA:) | Meteo·Mobile Aviation Weather
aviador You're here:

KLBO Decoded Metar

in
Report Time2019-10-19 21:55:00
UTC Time2019-10-19 22:02:50
Flight Rules vfr VFR
Wind320° at 04 kt
W.Decomp.*RWY 36: 3.1 kt HW 2.6 kt LCW
Visibility9999 m
Phenomena:N/A
Clouds:Scattered 033 Hf
Overcast 040 Hf
Expected CloudBase > 1,600 ft AGL from Temp-Dew spread
Ceiling4,000 ft
Temp15°C
Dew Point11°C (77% RH)
AAT13.9°C
QNH1009 hPa
Raw Report
KLBO 192155Z AUTO 32004KT 10SM SCT033 OVC040 15/11 A2980 RMK
AO2=

Extra information for KLBO:More info

Social comments